sensor_id;sensor_type;location;lat;lon;timestamp;temperature;humidity
38784;DHT22;24531;45.502;12.238;2022-11-20T00:01:40;13.80;95.90
38784;DHT22;24531;45.502;12.238;2022-11-20T00:04:08;13.80;95.90
38784;DHT22;24531;45.502;12.238;2022-11-20T00:06:34;13.90;95.80
38784;DHT22;24531;45.502;12.238;2022-11-20T00:09:00;13.90;95.80
38784;DHT22;24531;45.502;12.238;2022-11-20T00:11:27;13.80;95.80
38784;DHT22;24531;45.502;12.238;2022-11-20T00:13:55;13.80;95.80
38784;DHT22;24531;45.502;12.238;2022-11-20T00:16:24;13.80;95.80
38784;DHT22;24531;45.502;12.238;2022-11-20T00:18:51;13.80;95.80
38784;DHT22;24531;45.502;12.238;2022-11-20T00:21:22;13.80;95.70
38784;DHT22;24531;45.502;12.238;2022-11-20T00:23:50;13.80;95.70
38784;DHT22;24531;45.502;12.238;2022-11-20T00:26:18;13.80;95.70
38784;DHT22;24531;45.502;12.238;2022-11-20T00:28:49;13.90;95.60
38784;DHT22;24531;45.502;12.238;2022-11-20T00:31:15;13.80;96.00
38784;DHT22;24531;45.502;12.238;2022-11-20T00:33:42;13.80;95.60
38784;DHT22;24531;45.502;12.238;2022-11-20T00:36:10;13.80;95.60
38784;DHT22;24531;45.502;12.238;2022-11-20T00:38:36;13.80;95.60
38784;DHT22;24531;45.502;12.238;2022-11-20T00:41:05;13.70;95.60
38784;DHT22;24531;45.502;12.238;2022-11-20T00:43:31;13.80;95.60
38784;DHT22;24531;45.502;12.238;2022-11-20T00:45:58;13.70;95.70
38784;DHT22;24531;45.502;12.238;2022-11-20T00:48:24;13.80;95.70
38784;DHT22;24531;45.502;12.238;2022-11-20T00:50:49;13.70;95.70
38784;DHT22;24531;45.502;12.238;2022-11-20T00:53:15;13.70;95.60
38784;DHT22;24531;45.502;12.238;2022-11-20T00:55:40;13.70;95.60
38784;DHT22;24531;45.502;12.238;2022-11-20T00:58:06;13.70;95.70
38784;DHT22;24531;45.502;12.238;2022-11-20T01:00:32;13.70;95.70
38784;DHT22;24531;45.502;12.238;2022-11-20T01:02:57;13.70;95.60
38784;DHT22;24531;45.502;12.238;2022-11-20T01:05:23;13.70;95.70
38784;DHT22;24531;45.502;12.238;2022-11-20T01:07:49;13.70;95.60
38784;DHT22;24531;45.502;12.238;2022-11-20T01:10:14;13.70;95.60
38784;DHT22;24531;45.502;12.238;2022-11-20T01:12:40;13.80;95.70
38784;DHT22;24531;45.502;12.238;2022-11-20T01:15:06;13.80;96.00
38784;DHT22;24531;45.502;12.238;2022-11-20T01:17:32;13.80;95.60
38784;DHT22;24531;45.502;12.238;2022-11-20T01:19:57;13.80;95.50
38784;DHT22;24531;45.502;12.238;2022-11-20T01:22:23;13.80;95.60
38784;DHT22;24531;45.502;12.238;2022-11-20T01:24:48;13.80;95.60
38784;DHT22;24531;45.502;12.238;2022-11-20T01:27:14;13.80;95.60
38784;DHT22;24531;45.502;12.238;2022-11-20T01:29:39;13.80;95.60
38784;DHT22;24531;45.502;12.238;2022-11-20T01:32:05;13.70;95.60
38784;DHT22;24531;45.502;12.238;2022-11-20T01:34:31;13.80;95.60
38784;DHT22;24531;45.502;12.238;2022-11-20T01:36:56;13.80;95.50
38784;DHT22;24531;45.502;12.238;2022-11-20T01:39:24;13.80;95.50
38784;DHT22;24531;45.502;12.238;2022-11-20T01:41:51;13.80;95.40
38784;DHT22;24531;45.502;12.238;2022-11-20T01:47:17;13.80;95.30
38784;DHT22;24531;45.502;12.238;2022-11-20T01:49:50;13.80;95.30
38784;DHT22;24531;45.502;12.238;2022-11-20T01:52:21;13.70;95.20
38784;DHT22;24531;45.502;12.238;2022-11-20T01:55:09;13.70;95.30
38784;DHT22;24531;45.502;12.238;2022-11-20T01:57:39;13.70;95.30
38784;DHT22;24531;45.502;12.238;2022-11-20T02:00:11;13.70;95.30
38784;DHT22;24531;45.502;12.238;2022-11-20T02:02:39;13.70;95.30
38784;DHT22;24531;45.502;12.238;2022-11-20T02:05:14;13.70;95.30
38784;DHT22;24531;45.502;12.238;2022-11-20T02:07:44;13.70;95.30
38784;DHT22;24531;45.502;12.238;2022-11-20T02:10:09;13.70;95.20
38784;DHT22;24531;45.502;12.238;2022-11-20T02:12:36;13.70;95.20
38784;DHT22;24531;45.502;12.238;2022-11-20T02:15:20;13.70;95.20
38784;DHT22;24531;45.502;12.238;2022-11-20T02:17:46;13.60;95.20
38784;DHT22;24531;45.502;12.238;2022-11-20T02:20:12;13.70;95.20
38784;DHT22;24531;45.502;12.238;2022-11-20T02:22:54;13.60;95.20
38784;DHT22;24531;45.502;12.238;2022-11-20T02:25:20;13.60;95.10
38784;DHT22;24531;45.502;12.238;2022-11-20T02:27:46;13.60;95.10
38784;DHT22;24531;45.502;12.238;2022-11-20T02:30:13;13.60;95.10
38784;DHT22;24531;45.502;12.238;2022-11-20T02:32:39;13.60;95.50
38784;DHT22;24531;45.502;12.238;2022-11-20T02:37:45;13.60;95.10
38784;DHT22;24531;45.502;12.238;2022-11-20T02:40:13;13.60;95.10
38784;DHT22;24531;45.502;12.238;2022-11-20T02:42:42;13.60;95.10
38784;DHT22;24531;45.502;12.238;2022-11-20T02:45:08;13.60;95.10
38784;DHT22;24531;45.502;12.238;2022-11-20T02:47:42;13.60;95.10
38784;DHT22;24531;45.502;12.238;2022-11-20T02:50:08;13.60;95.10
38784;DHT22;24531;45.502;12.238;2022-11-20T02:52:34;13.60;95.00
38784;DHT22;24531;45.502;12.238;2022-11-20T02:54:59;13.60;95.00
38784;DHT22;24531;45.502;12.238;2022-11-20T02:57:26;13.60;95.00
38784;DHT22;24531;45.502;12.238;2022-11-20T02:59:51;13.60;95.00
38784;DHT22;24531;45.502;12.238;2022-11-20T03:02:17;13.60;94.90
38784;DHT22;24531;45.502;12.238;2022-11-20T03:04:42;13.60;95.00
38784;DHT22;24531;45.502;12.238;2022-11-20T03:07:08;13.50;95.00
38784;DHT22;24531;45.502;12.238;2022-11-20T03:09:35;13.50;95.00
38784;DHT22;24531;45.502;12.238;2022-11-20T03:12:00;13.50;95.00
38784;DHT22;24531;45.502;12.238;2022-11-20T03:14:26;13.50;95.00
38784;DHT22;24531;45.502;12.238;2022-11-20T03:16:52;13.60;95.00
38784;DHT22;24531;45.502;12.238;2022-11-20T03:19:17;13.50;95.00
38784;DHT22;24531;45.502;12.238;2022-11-20T03:21:43;13.50;95.00
38784;DHT22;24531;45.502;12.238;2022-11-20T03:24:09;13.50;95.00
38784;DHT22;24531;45.502;12.238;2022-11-20T03:26:34;13.50;95.00
38784;DHT22;24531;45.502;12.238;2022-11-20T03:29:02;13.50;95.00
38784;DHT22;24531;45.502;12.238;2022-11-20T03:31:30;13.40;95.00
38784;DHT22;24531;45.502;12.238;2022-11-20T03:33:57;13.40;95.00
38784;DHT22;24531;45.502;12.238;2022-11-20T03:36:23;13.40;95.00
38784;DHT22;24531;45.502;12.238;2022-11-20T03:38:49;13.30;95.00
38784;DHT22;24531;45.502;12.238;2022-11-20T03:41:20;13.30;95.00
38784;DHT22;24531;45.502;12.238;2022-11-20T03:43:57;13.30;95.10
38784;DHT22;24531;45.502;12.238;2022-11-20T03:46:24;13.30;95.10
38784;DHT22;24531;45.502;12.238;2022-11-20T03:48:50;13.30;95.10
38784;DHT22;24531;45.502;12.238;2022-11-20T03:51:28;13.30;95.10
38784;DHT22;24531;45.502;12.238;2022-11-20T03:53:57;13.30;95.10
38784;DHT22;24531;45.502;12.238;2022-11-20T03:56:28;13.20;95.00
38784;DHT22;24531;45.502;12.238;2022-11-20T03:58:53;13.20;95.00
38784;DHT22;24531;45.502;12.238;2022-11-20T04:01:28;13.20;95.00
38784;DHT22;24531;45.502;12.238;2022-11-20T04:03:55;13.20;95.00
38784;DHT22;24531;45.502;12.238;2022-11-20T04:06:36;13.20;95.00
38784;DHT22;24531;45.502;12.238;2022-11-20T04:09:02;13.20;95.00
38784;DHT22;24531;45.502;12.238;2022-11-20T04:11:33;13.10;95.00
38784;DHT22;24531;45.502;12.238;2022-11-20T04:14:04;13.20;95.00
38784;DHT22;24531;45.502;12.238;2022-11-20T04:16:33;13.20;95.00
38784;DHT22;24531;45.502;12.238;2022-11-20T04:19:01;13.10;94.90
38784;DHT22;24531;45.502;12.238;2022-11-20T04:21:27;13.10;95.00
38784;DHT22;24531;45.502;12.238;2022-11-20T04:23:53;13.10;95.00
38784;DHT22;24531;45.502;12.238;2022-11-20T04:26:20;13.00;95.00
38784;DHT22;24531;45.502;12.238;2022-11-20T04:28:46;13.00;95.00
38784;DHT22;24531;45.502;12.238;2022-11-20T04:31:14;13.00;95.00
38784;DHT22;24531;45.502;12.238;2022-11-20T04:33:40;13.00;95.10
38784;DHT22;24531;45.502;12.238;2022-11-20T04:36:18;13.00;95.00
38784;DHT22;24531;45.502;12.238;2022-11-20T04:38:44;12.90;95.10
38784;DHT22;24531;45.502;12.238;2022-11-20T04:41:16;12.90;95.10
38784;DHT22;24531;45.502;12.238;2022-11-20T04:43:46;12.90;95.10
38784;DHT22;24531;45.502;12.238;2022-11-20T04:46:13;12.90;95.20
38784;DHT22;24531;45.502;12.238;2022-11-20T04:48:39;12.90;95.20
38784;DHT22;24531;45.502;12.238;2022-11-20T04:51:07;12.90;95.20
38784;DHT22;24531;45.502;12.238;2022-11-20T04:53:33;12.80;95.30
38784;DHT22;24531;45.502;12.238;2022-11-20T04:56:00;12.90;95.30
38784;DHT22;24531;45.502;12.238;2022-11-20T04:58:26;12.80;95.30
38784;DHT22;24531;45.502;12.238;2022-11-20T05:00:51;12.70;95.30
38784;DHT22;24531;45.502;12.238;2022-11-20T05:03:17;12.70;95.40
38784;DHT22;24531;45.502;12.238;2022-11-20T05:05:53;12.70;95.40
38784;DHT22;24531;45.502;12.238;2022-11-20T05:08:19;12.70;95.50
38784;DHT22;24531;45.502;12.238;2022-11-20T05:10:45;12.70;95.50
38784;DHT22;24531;45.502;12.238;2022-11-20T05:13:13;12.70;95.40
38784;DHT22;24531;45.502;12.238;2022-11-20T05:15:42;12.70;95.40
38784;DHT22;24531;45.502;12.238;2022-11-20T05:18:07;12.70;95.50
38784;DHT22;24531;45.502;12.238;2022-11-20T05:20:33;12.60;95.50
38784;DHT22;24531;45.502;12.238;2022-11-20T05:22:59;12.60;95.50
38784;DHT22;24531;45.502;12.238;2022-11-20T05:25:24;12.50;95.50
38784;DHT22;24531;45.502;12.238;2022-11-20T05:27:50;12.60;95.60
38784;DHT22;24531;45.502;12.238;2022-11-20T05:30:16;12.50;95.60
38784;DHT22;24531;45.502;12.238;2022-11-20T05:32:41;12.50;95.60
38784;DHT22;24531;45.502;12.238;2022-11-20T05:35:07;12.50;95.60
38784;DHT22;24531;45.502;12.238;2022-11-20T05:37:33;12.50;95.70
38784;DHT22;24531;45.502;12.238;2022-11-20T05:39:59;12.50;95.70
38784;DHT22;24531;45.502;12.238;2022-11-20T05:42:24;12.50;95.70
38784;DHT22;24531;45.502;12.238;2022-11-20T05:44:57;12.50;95.70
38784;DHT22;24531;45.502;12.238;2022-11-20T05:47:23;12.40;95.70
38784;DHT22;24531;45.502;12.238;2022-11-20T05:49:48;12.40;95.70
38784;DHT22;24531;45.502;12.238;2022-11-20T05:52:14;12.40;95.80
38784;DHT22;24531;45.502;12.238;2022-11-20T05:54:39;12.40;95.70
38784;DHT22;24531;45.502;12.238;2022-11-20T05:57:05;12.40;95.80
38784;DHT22;24531;45.502;12.238;2022-11-20T05:59:31;12.30;95.70
38784;DHT22;24531;45.502;12.238;2022-11-20T06:01:56;12.30;95.70
38784;DHT22;24531;45.502;12.238;2022-11-20T06:04:22;12.30;95.80
38784;DHT22;24531;45.502;12.238;2022-11-20T06:06:47;12.30;95.80
38784;DHT22;24531;45.502;12.238;2022-11-20T06:09:13;12.30;95.80
38784;DHT22;24531;45.502;12.238;2022-11-20T06:11:39;12.30;95.70
38784;DHT22;24531;45.502;12.238;2022-11-20T06:14:04;12.20;95.70
38784;DHT22;24531;45.502;12.238;2022-11-20T06:16:30;12.20;95.70
38784;DHT22;24531;45.502;12.238;2022-11-20T06:18:55;12.20;95.70
38784;DHT22;24531;45.502;12.238;2022-11-20T06:21:22;12.20;95.70
38784;DHT22;24531;45.502;12.238;2022-11-20T06:23:49;12.20;95.70
38784;DHT22;24531;45.502;12.238;2022-11-20T06:26:23;12.20;95.80
38784;DHT22;24531;45.502;12.238;2022-11-20T06:28:55;12.20;95.80
38784;DHT22;24531;45.502;12.238;2022-11-20T06:31:27;12.20;95.70
38784;DHT22;24531;45.502;12.238;2022-11-20T06:33:53;12.10;95.70
38784;DHT22;24531;45.502;12.238;2022-11-20T06:36:23;12.10;95.80
38784;DHT22;24531;45.502;12.238;2022-11-20T06:38:49;12.10;95.80
38784;DHT22;24531;45.502;12.238;2022-11-20T06:41:19;12.10;95.80
38784;DHT22;24531;45.502;12.238;2022-11-20T08:16:13;13.50;95.20
38784;DHT22;24531;45.502;12.238;2022-11-20T08:18:38;13.50;95.20
38784;DHT22;24531;45.502;12.238;2022-11-20T08:21:04;13.50;95.20
38784;DHT22;24531;45.502;12.238;2022-11-20T08:23:31;13.60;95.20
38784;DHT22;24531;45.502;12.238;2022-11-20T08:25:56;13.60;95.20
38784;DHT22;24531;45.502;12.238;2022-11-20T08:28:22;13.70;95.20
38784;DHT22;24531;45.502;12.238;2022-11-20T08:30:48;13.80;95.10
38784;DHT22;24531;45.502;12.238;2022-11-20T08:33:14;13.80;95.00
38784;DHT22;24531;45.502;12.238;2022-11-20T08:35:39;13.80;94.90
38784;DHT22;24531;45.502;12.238;2022-11-20T08:38:06;13.90;95.00
38784;DHT22;24531;45.502;12.238;2022-11-20T08:40:32;13.90;94.90
38784;DHT22;24531;45.502;12.238;2022-11-20T08:42:58;13.90;94.80
38784;DHT22;24531;45.502;12.238;2022-11-20T08:45:24;13.90;94.80
38784;DHT22;24531;45.502;12.238;2022-11-20T08:47:50;13.90;94.70
38784;DHT22;24531;45.502;12.238;2022-11-20T08:50:16;13.90;94.70
38784;DHT22;24531;45.502;12.238;2022-11-20T08:52:42;13.90;94.80
38784;DHT22;24531;45.502;12.238;2022-11-20T08:55:09;13.90;94.90
38784;DHT22;24531;45.502;12.238;2022-11-20T08:57:36;14.00;94.90
38784;DHT22;24531;45.502;12.238;2022-11-20T09:00:04;14.20;94.90
38784;DHT22;24531;45.502;12.238;2022-11-20T09:02:42;14.30;94.90
38784;DHT22;24531;45.502;12.238;2022-11-20T09:05:44;14.50;94.80
38784;DHT22;24531;45.502;12.238;2022-11-20T09:11:31;14.70;94.70
38784;DHT22;24531;45.502;12.238;2022-11-20T09:14:18;14.80;94.50
38784;DHT22;24531;45.502;12.238;2022-11-20T09:52:22;15.30;93.70
38784;DHT22;24531;45.502;12.238;2022-11-20T09:54:46;15.50;93.60
38784;DHT22;24531;45.502;12.238;2022-11-20T09:57:21;15.50;93.40
38784;DHT22;24531;45.502;12.238;2022-11-20T09:59:53;15.60;93.20
38784;DHT22;24531;45.502;12.238;2022-11-20T10:05:28;15.60;93.00
38784;DHT22;24531;45.502;12.238;2022-11-20T10:11:04;15.80;93.10
38784;DHT22;24531;45.502;12.238;2022-11-20T10:29:42;16.00;92.10
38784;DHT22;24531;45.502;12.238;2022-11-20T10:32:18;16.00;91.80
38784;DHT22;24531;45.502;12.238;2022-11-20T10:34:52;16.00;91.70
38784;DHT22;24531;45.502;12.238;2022-11-20T10:45:13;15.90;91.70
38784;DHT22;24531;45.502;12.238;2022-11-20T10:47:40;15.90;91.70
38784;DHT22;24531;45.502;12.238;2022-11-20T10:50:10;15.90;91.70
38784;DHT22;24531;45.502;12.238;2022-11-20T11:10:56;16.10;91.50
38784;DHT22;24531;45.502;12.238;2022-11-20T11:13:24;16.10;91.40
38784;DHT22;24531;45.502;12.238;2022-11-20T11:15:51;16.10;91.20
38784;DHT22;24531;45.502;12.238;2022-11-20T11:18:30;16.10;91.00
38784;DHT22;24531;45.502;12.238;2022-11-20T11:20:59;16.10;90.90
38784;DHT22;24531;45.502;12.238;2022-11-20T11:23:37;16.20;91.00
38784;DHT22;24531;45.502;12.238;2022-11-20T11:36:03;16.20;90.50
38784;DHT22;24531;45.502;12.238;2022-11-20T11:38:57;16.20;90.60
38784;DHT22;24531;45.502;12.238;2022-11-20T11:41:25;16.20;90.60
38784;DHT22;24531;45.502;12.238;2022-11-20T11:44:16;16.30;90.60
38784;DHT22;24531;45.502;12.238;2022-11-20T12:01:29;16.10;90.20
38784;DHT22;24531;45.502;12.238;2022-11-20T12:46:40;16.00;88.50
38784;DHT22;24531;45.502;12.238;2022-11-20T12:49:56;16.00;88.10
38784;DHT22;24531;45.502;12.238;2022-11-20T13:07:03;15.80;87.80
38784;DHT22;24531;45.502;12.238;2022-11-20T13:09:30;15.80;87.60
38784;DHT22;24531;45.502;12.238;2022-11-20T13:17:59;15.80;87.50
38784;DHT22;24531;45.502;12.238;2022-11-20T13:20:26;15.70;87.30
38784;DHT22;24531;45.502;12.238;2022-11-20T13:22:54;15.80;87.50
38784;DHT22;24531;45.502;12.238;2022-11-20T13:27:56;15.90;87.50
38784;DHT22;24531;45.502;12.238;2022-11-20T13:40:51;15.80;86.90
38784;DHT22;24531;45.502;12.238;2022-11-20T13:46:10;15.90;87.00
38784;DHT22;24531;45.502;12.238;2022-11-20T13:48:45;15.80;86.90
38784;DHT22;24531;45.502;12.238;2022-11-20T13:54:13;15.80;87.10
38784;DHT22;24531;45.502;12.238;2022-11-20T13:57:22;15.90;87.00
38784;DHT22;24531;45.502;12.238;2022-11-20T14:00:00;15.80;87.90
38784;DHT22;24531;45.502;12.238;2022-11-20T14:11:46;15.60;87.50
38784;DHT22;24531;45.502;12.238;2022-11-20T14:14:46;15.70;88.00
38784;DHT22;24531;45.502;12.238;2022-11-20T14:17:46;15.70;87.80
38784;DHT22;24531;45.502;12.238;2022-11-20T14:20:18;15.60;87.80
38784;DHT22;24531;45.502;12.238;2022-11-20T14:32:43;15.50;87.80
38784;DHT22;24531;45.502;12.238;2022-11-20T14:35:33;15.60;88.00
38784;DHT22;24531;45.502;12.238;2022-11-20T14:38:01;15.50;88.00
38784;DHT22;24531;45.502;12.238;2022-11-20T14:40:38;15.40;88.10
38784;DHT22;24531;45.502;12.238;2022-11-20T14:43:23;15.40;88.40
38784;DHT22;24531;45.502;12.238;2022-11-20T14:45:59;15.40;88.40
38784;DHT22;24531;45.502;12.238;2022-11-20T14:48:45;15.40;88.50
38784;DHT22;24531;45.502;12.238;2022-11-20T14:54:59;15.40;88.70
38784;DHT22;24531;45.502;12.238;2022-11-20T14:57:59;15.50;88.60
38784;DHT22;24531;45.502;12.238;2022-11-20T15:04:43;15.40;88.80
38784;DHT22;24531;45.502;12.238;2022-11-20T15:10:27;15.20;89.10
38784;DHT22;24531;45.502;12.238;2022-11-20T15:51:33;14.90;90.90
38784;DHT22;24531;45.502;12.238;2022-11-20T15:53:59;14.90;91.10
38784;DHT22;24531;45.502;12.238;2022-11-20T16:07:01;14.70;91.50
38784;DHT22;24531;45.502;12.238;2022-11-20T16:41:09;13.90;92.40
38784;DHT22;24531;45.502;12.238;2022-11-20T16:43:49;13.90;92.50
38784;DHT22;24531;45.502;12.238;2022-11-20T16:46:17;13.90;92.60
38784;DHT22;24531;45.502;12.238;2022-11-20T16:48:43;13.90;92.70
38784;DHT22;24531;45.502;12.238;2022-11-20T16:51:10;13.90;92.80
38784;DHT22;24531;45.502;12.238;2022-11-20T16:53:37;13.80;92.80
38784;DHT22;24531;45.502;12.238;2022-11-20T16:56:11;13.80;92.90
38784;DHT22;24531;45.502;12.238;2022-11-20T16:58:37;13.80;93.00
38784;DHT22;24531;45.502;12.238;2022-11-20T17:01:07;13.70;93.00
38784;DHT22;24531;45.502;12.238;2022-11-20T17:03:38;13.70;93.00
38784;DHT22;24531;45.502;12.238;2022-11-20T17:06:15;13.70;93.10
38784;DHT22;24531;45.502;12.238;2022-11-20T17:08:41;13.70;93.10
38784;DHT22;24531;45.502;12.238;2022-11-20T17:11:08;13.70;93.10
38784;DHT22;24531;45.502;12.238;2022-11-20T17:13:35;13.60;93.20
38784;DHT22;24531;45.502;12.238;2022-11-20T17:16:06;13.60;93.20
38784;DHT22;24531;45.502;12.238;2022-11-20T17:18:32;13.60;93.30
38784;DHT22;24531;45.502;12.238;2022-11-20T17:20:58;13.50;93.30
38784;DHT22;24531;45.502;12.238;2022-11-20T17:23:27;13.50;93.30
38784;DHT22;24531;45.502;12.238;2022-11-20T17:26:13;13.50;93.40
38784;DHT22;24531;45.502;12.238;2022-11-20T17:28:41;13.50;93.40
38784;DHT22;24531;45.502;12.238;2022-11-20T17:31:14;13.50;93.50
38784;DHT22;24531;45.502;12.238;2022-11-20T17:33:42;13.50;93.50
38784;DHT22;24531;45.502;12.238;2022-11-20T17:36:10;13.50;93.60
38784;DHT22;24531;45.502;12.238;2022-11-20T17:38:36;13.40;93.60
38784;DHT22;24531;45.502;12.238;2022-11-20T17:41:10;13.40;93.60
38784;DHT22;24531;45.502;12.238;2022-11-20T17:43:36;13.40;93.70
38784;DHT22;24531;45.502;12.238;2022-11-20T17:46:06;13.30;93.70
38784;DHT22;24531;45.502;12.238;2022-11-20T17:48:32;13.30;93.70
38784;DHT22;24531;45.502;12.238;2022-11-20T17:51:00;13.30;93.70
38784;DHT22;24531;45.502;12.238;2022-11-20T17:53:27;13.30;93.80
38784;DHT22;24531;45.502;12.238;2022-11-20T17:55:56;13.20;93.80
38784;DHT22;24531;45.502;12.238;2022-11-20T17:58:41;13.20;93.90
38784;DHT22;24531;45.502;12.238;2022-11-20T18:01:08;13.20;93.90
38784;DHT22;24531;45.502;12.238;2022-11-20T18:03:33;13.20;94.00
38784;DHT22;24531;45.502;12.238;2022-11-20T18:06:14;13.30;94.00
38784;DHT22;24531;45.502;12.238;2022-11-20T18:08:40;13.30;94.00
38784;DHT22;24531;45.502;12.238;2022-11-20T18:11:17;13.40;94.00
38784;DHT22;24531;45.502;12.238;2022-11-20T18:13:44;13.40;94.10
38784;DHT22;24531;45.502;12.238;2022-11-20T18:16:31;13.40;94.10
38784;DHT22;24531;45.502;12.238;2022-11-20T18:18:58;13.40;94.10
38784;DHT22;24531;45.502;12.238;2022-11-20T18:21:25;13.30;94.00
38784;DHT22;24531;45.502;12.238;2022-11-20T18:23:51;13.30;94.10
38784;DHT22;24531;45.502;12.238;2022-11-20T18:26:17;13.30;94.10
38784;DHT22;24531;45.502;12.238;2022-11-20T18:28:44;13.30;94.20
38784;DHT22;24531;45.502;12.238;2022-11-20T18:31:10;13.30;94.20
38784;DHT22;24531;45.502;12.238;2022-11-20T18:33:36;13.30;94.20
38784;DHT22;24531;45.502;12.238;2022-11-20T18:36:15;13.30;94.30
38784;DHT22;24531;45.502;12.238;2022-11-20T18:38:43;13.30;94.30
38784;DHT22;24531;45.502;12.238;2022-11-20T18:41:10;13.30;94.20
38784;DHT22;24531;45.502;12.238;2022-11-20T18:43:55;13.30;94.30
38784;DHT22;24531;45.502;12.238;2022-11-20T18:46:39;13.30;94.30
38784;DHT22;24531;45.502;12.238;2022-11-20T18:49:04;13.30;94.30
38784;DHT22;24531;45.502;12.238;2022-11-20T18:51:30;13.20;94.30
38784;DHT22;24531;45.502;12.238;2022-11-20T18:53:55;13.10;94.40
38784;DHT22;24531;45.502;12.238;2022-11-20T18:56:22;13.10;94.40
38784;DHT22;24531;45.502;12.238;2022-11-20T18:58:47;13.10;94.40
38784;DHT22;24531;45.502;12.238;2022-11-20T19:01:13;13.10;94.50
38784;DHT22;24531;45.502;12.238;2022-11-20T19:03:38;13.10;94.50
38784;DHT22;24531;45.502;12.238;2022-11-20T19:06:04;13.00;94.50
38784;DHT22;24531;45.502;12.238;2022-11-20T19:08:33;13.00;94.50
38784;DHT22;24531;45.502;12.238;2022-11-20T19:11:09;13.00;94.60
38784;DHT22;24531;45.502;12.238;2022-11-20T19:13:36;13.00;94.60
38784;DHT22;24531;45.502;12.238;2022-11-20T19:16:07;12.90;94.50
38784;DHT22;24531;45.502;12.238;2022-11-20T19:18:33;12.90;94.60
38784;DHT22;24531;45.502;12.238;2022-11-20T19:21:06;12.90;94.60
38784;DHT22;24531;45.502;12.238;2022-11-20T19:23:33;12.90;94.70
38784;DHT22;24531;45.502;12.238;2022-11-20T19:25:59;12.90;94.70
38784;DHT22;24531;45.502;12.238;2022-11-20T19:28:26;12.90;94.70
38784;DHT22;24531;45.502;12.238;2022-11-20T19:30:52;12.90;94.60
38784;DHT22;24531;45.502;12.238;2022-11-20T19:33:17;12.90;94.70
38784;DHT22;24531;45.502;12.238;2022-11-20T19:35:43;12.90;94.70
38784;DHT22;24531;45.502;12.238;2022-11-20T19:38:08;12.90;94.70
38784;DHT22;24531;45.502;12.238;2022-11-20T19:40:34;12.90;94.70
38784;DHT22;24531;45.502;12.238;2022-11-20T19:43:00;12.90;94.70
38784;DHT22;24531;45.502;12.238;2022-11-20T19:45:26;12.90;94.80
38784;DHT22;24531;45.502;12.238;2022-11-20T19:47:52;12.90;94.80
38784;DHT22;24531;45.502;12.238;2022-11-20T19:50:17;12.90;94.70
38784;DHT22;24531;45.502;12.238;2022-11-20T19:52:43;12.90;94.80
38784;DHT22;24531;45.502;12.238;2022-11-20T19:55:08;12.90;94.80
38784;DHT22;24531;45.502;12.238;2022-11-20T19:57:35;12.90;94.80
38784;DHT22;24531;45.502;12.238;2022-11-20T20:00:00;12.90;94.80
38784;DHT22;24531;45.502;12.238;2022-11-20T20:02:26;12.80;94.90
38784;DHT22;24531;45.502;12.238;2022-11-20T20:04:52;12.90;94.90
38784;DHT22;24531;45.502;12.238;2022-11-20T20:07:17;12.80;94.90
38784;DHT22;24531;45.502;12.238;2022-11-20T20:09:43;12.80;94.90
38784;DHT22;24531;45.502;12.238;2022-11-20T20:12:08;12.80;95.00
38784;DHT22;24531;45.502;12.238;2022-11-20T20:14:34;12.80;95.00
38784;DHT22;24531;45.502;12.238;2022-11-20T20:17:00;12.80;95.00
38784;DHT22;24531;45.502;12.238;2022-11-20T20:22:01;12.70;94.90
38784;DHT22;24531;45.502;12.238;2022-11-20T20:24:26;12.80;95.00
38784;DHT22;24531;45.502;12.238;2022-11-20T20:26:52;12.80;95.00
38784;DHT22;24531;45.502;12.238;2022-11-20T20:29:17;12.80;94.90
38784;DHT22;24531;45.502;12.238;2022-11-20T20:31:46;12.80;94.90
38784;DHT22;24531;45.502;12.238;2022-11-20T20:34:12;12.80;94.90
38784;DHT22;24531;45.502;12.238;2022-11-20T20:36:38;12.80;94.80
38784;DHT22;24531;45.502;12.238;2022-11-20T20:39:03;12.70;94.80
38784;DHT22;24531;45.502;12.238;2022-11-20T20:41:29;12.60;94.80
38784;DHT22;24531;45.502;12.238;2022-11-20T20:43:55;12.60;94.80
38784;DHT22;24531;45.502;12.238;2022-11-20T20:46:40;12.60;94.90
38784;DHT22;24531;45.502;12.238;2022-11-20T20:49:06;12.60;94.90
38784;DHT22;24531;45.502;12.238;2022-11-20T20:51:32;12.50;94.90
38784;DHT22;24531;45.502;12.238;2022-11-20T20:53:58;12.50;94.90
38784;DHT22;24531;45.502;12.238;2022-11-20T20:56:24;12.50;94.90
38784;DHT22;24531;45.502;12.238;2022-11-20T20:58:50;12.50;94.90
38784;DHT22;24531;45.502;12.238;2022-11-20T21:01:17;12.50;94.90
38784;DHT22;24531;45.502;12.238;2022-11-20T21:03:43;12.60;94.90
38784;DHT22;24531;45.502;12.238;2022-11-20T21:06:10;12.60;94.80
38784;DHT22;24531;45.502;12.238;2022-11-20T21:08:36;12.50;95.10
38784;DHT22;24531;45.502;12.238;2022-11-20T21:11:10;12.40;94.70
38784;DHT22;24531;45.502;12.238;2022-11-20T21:13:37;12.40;94.70
38784;DHT22;24531;45.502;12.238;2022-11-20T21:16:04;12.30;94.70
38784;DHT22;24531;45.502;12.238;2022-11-20T21:18:30;12.30;94.80
38784;DHT22;24531;45.502;12.238;2022-11-20T21:20:56;12.30;95.80
38784;DHT22;24531;45.502;12.238;2022-11-20T21:23:44;12.20;94.90
38784;DHT22;24531;45.502;12.238;2022-11-20T21:26:10;12.10;94.90
38784;DHT22;24531;45.502;12.238;2022-11-20T21:28:36;12.10;95.00
38784;DHT22;24531;45.502;12.238;2022-11-20T21:31:14;12.10;95.00
38784;DHT22;24531;45.502;12.238;2022-11-20T21:33:42;12.00;94.90
38784;DHT22;24531;45.502;12.238;2022-11-20T21:36:09;12.00;95.00
38784;DHT22;24531;45.502;12.238;2022-11-20T21:38:35;11.90;95.10
38784;DHT22;24531;45.502;12.238;2022-11-20T21:41:02;11.90;95.10
38784;DHT22;24531;45.502;12.238;2022-11-20T21:43:28;11.90;95.00
38784;DHT22;24531;45.502;12.238;2022-11-20T21:46:02;11.90;95.10
38784;DHT22;24531;45.502;12.238;2022-11-20T21:48:32;11.90;95.20
38784;DHT22;24531;45.502;12.238;2022-11-20T21:51:06;11.90;95.20
38784;DHT22;24531;45.502;12.238;2022-11-20T21:53:32;12.00;95.30
38784;DHT22;24531;45.502;12.238;2022-11-20T21:55:59;12.00;95.20
38784;DHT22;24531;45.502;12.238;2022-11-20T21:58:25;11.90;95.20
38784;DHT22;24531;45.502;12.238;2022-11-20T22:00:51;12.00;95.30
38784;DHT22;24531;45.502;12.238;2022-11-20T22:03:17;12.00;95.30
38784;DHT22;24531;45.502;12.238;2022-11-20T22:05:51;12.00;95.30
38784;DHT22;24531;45.502;12.238;2022-11-20T22:08:17;12.10;95.30
38784;DHT22;24531;45.502;12.238;2022-11-20T22:10:42;12.00;95.20
38784;DHT22;24531;45.502;12.238;2022-11-20T22:13:08;12.10;95.30